createdAt,value
2023-06-23T00:01:56.089Z,3.13
2023-06-23T00:04:41.713Z,4.13
2023-06-23T00:07:27.088Z,5.07
2023-06-23T00:10:13.063Z,4.07
2023-06-23T00:12:58.674Z,4.10
2023-06-23T00:15:44.204Z,3.35
2023-06-23T00:18:29.733Z,3.45
2023-06-23T00:21:15.466Z,4.22
2023-06-23T00:24:00.825Z,3.63
2023-06-23T00:26:46.501Z,3.60
2023-06-23T00:29:31.982Z,4.05
2023-06-23T00:32:17.640Z,5.07
2023-06-23T00:35:03.811Z,2.92
2023-06-23T00:37:50.391Z,4.07
2023-06-23T00:40:37.904Z,5.05
2023-06-23T00:43:23.530Z,4.28
2023-06-23T00:46:17.460Z,3.88
2023-06-23T00:49:03.652Z,3.47
2023-06-23T00:51:49.107Z,4.00
2023-06-23T00:54:36.532Z,2.58
2023-06-23T00:57:21.801Z,3.65
2023-06-23T01:00:15.160Z,2.75
2023-06-23T01:03:01.388Z,3.53
2023-06-23T01:05:50.371Z,5.55
2023-06-23T01:08:40.552Z,7.05
2023-06-23T01:11:40.650Z,3.72
2023-06-23T01:14:36.263Z,4.85
2023-06-23T01:17:30.364Z,2.42
2023-06-23T01:20:22.870Z,3.38
2023-06-23T01:23:46.918Z,2.78
2023-06-23T01:27:02.503Z,3.67
2023-06-23T01:29:51.421Z,6.78
2023-06-23T01:32:44.538Z,4.40
2023-06-23T01:35:34.729Z,3.45
2023-06-23T01:38:25.612Z,3.00
2023-06-23T01:41:17.271Z,4.38
2023-06-23T01:44:08.626Z,2.95
2023-06-23T01:46:56.661Z,3.78
2023-06-23T01:49:43.565Z,3.50
2023-06-23T01:52:31.457Z,5.05
2023-06-23T01:55:18.291Z,4.82
2023-06-23T01:58:04.791Z,4.72
2023-06-23T02:00:50.942Z,3.80
2023-06-23T02:03:39.525Z,4.32
2023-06-23T02:06:27.392Z,4.47
2023-06-23T02:09:18.344Z,4.75
2023-06-23T02:12:07.793Z,5.13
2023-06-23T02:14:53.929Z,5.22
2023-06-23T02:17:41.646Z,3.55
2023-06-23T02:20:29.559Z,3.22
2023-06-23T02:23:16.088Z,4.18
2023-06-23T02:26:02.381Z,4.28
2023-06-23T02:28:51.207Z,5.63
2023-06-23T02:31:36.970Z,5.63
2023-06-23T02:34:22.159Z,4.70
2023-06-23T02:37:12.838Z,3.80
2023-06-23T02:40:13.719Z,3.88
2023-06-23T02:43:05.647Z,3.88
2023-06-23T02:45:54.714Z,4.47
2023-06-23T02:48:45.252Z,5.20
2023-06-23T02:51:35.444Z,4.75
2023-06-23T02:54:21.199Z,8.68
2023-06-23T02:57:11.733Z,7.38
2023-06-23T03:00:00.142Z,5.70
2023-06-23T03:02:49.414Z,7.90
2023-06-23T03:05:35.288Z,7.25
2023-06-23T03:08:21.082Z,5.85
2023-06-23T03:11:06.482Z,5.38
2023-06-23T03:13:52.140Z,3.85
2023-06-23T03:16:47.776Z,5.45
2023-06-23T03:19:47.618Z,5.40
2023-06-23T03:22:52.345Z,5.57
2023-06-23T03:25:38.806Z,4.47
2023-06-23T03:28:28.227Z,5.25
2023-06-23T03:31:18.752Z,5.15
2023-06-23T03:34:04.105Z,5.55
2023-06-23T03:36:51.329Z,4.63
2023-06-23T03:39:40.332Z,6.22
2023-06-23T03:42:26.765Z,5.28
2023-06-23T03:45:14.778Z,5.13
2023-06-23T03:48:04.946Z,4.43
2023-06-23T03:50:53.122Z,5.95
2023-06-23T03:53:39.655Z,6.10
2023-06-23T03:56:28.187Z,6.80
2023-06-23T03:59:16.840Z,5.93
2023-06-23T04:02:03.142Z,4.55
2023-06-23T04:04:50.506Z,7.05
2023-06-23T04:07:36.915Z,4.88
2023-06-23T04:10:24.158Z,6.40
2023-06-23T04:13:11.539Z,10.82
2023-06-23T04:15:59.304Z,6.50
2023-06-23T04:18:47.087Z,6.25
2023-06-23T04:21:34.106Z,5.15
2023-06-23T04:24:20.972Z,6.30
2023-06-23T04:27:08.688Z,5.85
2023-06-23T04:29:55.589Z,5.75
2023-06-23T04:32:42.329Z,5.07
2023-06-23T04:35:28.448Z,8.73
2023-06-23T04:38:15.920Z,7.20
2023-06-23T04:41:08.540Z,6.05
2023-06-23T04:43:55.956Z,6.43
2023-06-23T04:46:43.132Z,7.38
2023-06-23T04:49:31.499Z,8.98
2023-06-23T04:52:20.085Z,5.28
2023-06-23T04:55:08.179Z,6.53
2023-06-23T04:57:56.957Z,6.07
2023-06-23T05:00:44.149Z,7.22
2023-06-23T05:03:31.952Z,6.32
2023-06-23T05:06:19.750Z,4.97
2023-06-23T05:09:06.352Z,6.03
2023-06-23T05:11:54.028Z,7.22
2023-06-23T05:14:41.909Z,5.40
2023-06-23T05:17:28.524Z,6.90
2023-06-23T05:20:17.526Z,5.72
2023-06-23T05:23:06.724Z,6.40
2023-06-23T05:25:52.903Z,6.65
2023-06-23T05:28:40.936Z,7.70
2023-06-23T05:31:28.821Z,8.25
2023-06-23T05:34:17.577Z,7.82
2023-06-23T05:37:04.635Z,7.15
2023-06-23T05:39:50.904Z,7.95
2023-06-23T05:42:36.760Z,10.38
2023-06-23T05:45:22.131Z,6.10
2023-06-23T05:48:10.295Z,7.78
2023-06-23T05:50:57.651Z,6.20
2023-06-23T05:53:44.221Z,6.97
2023-06-23T05:56:54.790Z,6.95
2023-06-23T05:59:46.432Z,8.30
2023-06-23T06:02:35.061Z,6.90
2023-06-23T06:05:23.693Z,7.22
2023-06-23T06:08:11.583Z,8.88
2023-06-23T06:10:58.903Z,7.68
2023-06-23T06:13:47.932Z,7.80
2023-06-23T06:16:33.852Z,8.30
2023-06-23T06:19:23.812Z,6.38
2023-06-23T06:22:11.327Z,6.15
2023-06-23T06:24:58.296Z,7.50
2023-06-23T06:27:47.690Z,7.45
2023-06-23T06:30:35.386Z,7.53
2023-06-23T06:33:21.714Z,7.32
2023-06-23T06:36:10.024Z,8.13
2023-06-23T06:38:57.296Z,8.27
2023-06-23T06:41:45.368Z,9.18
2023-06-23T06:44:31.671Z,9.95
2023-06-23T06:47:18.288Z,8.00
2023-06-23T06:50:04.709Z,7.50
2023-06-23T06:52:50.618Z,8.50
2023-06-23T06:55:43.239Z,6.40
2023-06-23T06:58:29.238Z,10.43
2023-06-23T07:01:15.455Z,7.53
2023-06-23T07:04:05.330Z,7.05
2023-06-23T07:06:56.692Z,7.75
2023-06-23T07:09:42.051Z,7.30
2023-06-23T07:12:29.753Z,9.95
2023-06-23T07:15:15.839Z,11.55
2023-06-23T07:18:01.673Z,8.27
2023-06-23T07:20:47.510Z,8.68
2023-06-23T07:23:33.099Z,9.65
2023-06-23T07:26:18.900Z,9.60
2023-06-23T07:29:04.794Z,9.20
2023-06-23T07:31:50.516Z,9.18
2023-06-23T07:34:36.618Z,9.60
2023-06-23T07:37:22.705Z,11.60
2023-06-23T07:40:12.290Z,7.18
2023-06-23T07:42:58.092Z,9.45
2023-06-23T07:45:43.514Z,9.15
2023-06-23T07:48:29.106Z,8.50
2023-06-23T07:51:14.793Z,9.35
2023-06-23T07:54:06.613Z,7.78
2023-06-23T07:56:53.663Z,7.93
2023-06-23T07:59:39.237Z,8.57
2023-06-23T08:02:25.094Z,7.70
2023-06-23T08:05:10.724Z,8.68
2023-06-23T08:07:56.470Z,7.68
2023-06-23T08:10:43.985Z,7.88
2023-06-23T08:13:29.588Z,9.02
2023-06-23T08:16:15.406Z,11.38
2023-06-23T08:19:00.707Z,10.10
2023-06-23T08:21:46.120Z,8.63
2023-06-23T08:24:31.676Z,8.68
2023-06-23T08:27:17.261Z,9.98
2023-06-23T08:30:02.956Z,9.30
2023-06-23T08:32:48.162Z,6.32
2023-06-23T08:35:34.094Z,6.72
2023-06-23T08:38:19.728Z,11.55
2023-06-23T08:41:06.975Z,7.82
2023-06-23T08:43:56.227Z,10.23
2023-06-23T08:47:03.450Z,9.80
2023-06-23T08:49:50.958Z,7.82
2023-06-23T08:52:36.674Z,10.27
2023-06-23T08:55:22.039Z,6.70
2023-06-23T08:58:07.890Z,7.75
2023-06-23T09:00:55.102Z,6.03
2023-06-23T09:03:44.322Z,7.65
2023-06-23T09:06:29.992Z,7.45
2023-06-23T09:09:15.632Z,7.03
2023-06-23T09:12:01.480Z,5.88
2023-06-23T09:14:49.739Z,5.30
2023-06-23T09:17:36.187Z,5.03
2023-06-23T09:20:22.028Z,8.05
2023-06-23T09:23:07.581Z,6.07
2023-06-23T09:25:59.813Z,6.88
2023-06-23T09:28:45.778Z,5.18
2023-06-23T09:31:34.624Z,4.95
2023-06-23T09:34:25.529Z,5.63
2023-06-23T09:37:13.532Z,6.28
2023-06-23T09:39:59.521Z,5.10
2023-06-23T09:42:45.327Z,5.57
2023-06-23T09:45:33.447Z,5.88
2023-06-23T09:48:20.678Z,5.60
2023-06-23T09:51:07.172Z,7.20
2023-06-23T09:53:52.615Z,5.50
2023-06-23T09:56:38.486Z,6.85
2023-06-23T09:59:23.994Z,4.68
2023-06-23T10:02:11.468Z,6.85
2023-06-23T10:05:01.876Z,6.63
2023-06-23T10:07:47.535Z,7.82
2023-06-23T10:10:33.561Z,4.53
2023-06-23T10:13:19.349Z,5.20
2023-06-23T10:16:05.699Z,4.82
2023-06-23T10:18:52.011Z,5.47
2023-06-23T10:21:38.057Z,4.35
2023-06-23T10:24:24.163Z,4.10
2023-06-23T10:27:11.412Z,3.97
2023-06-23T10:30:03.413Z,5.05
2023-06-23T10:32:54.298Z,4.47
2023-06-23T10:35:40.898Z,4.75
2023-06-23T10:38:28.725Z,5.75
2023-06-23T10:41:15.162Z,4.88
2023-06-23T10:44:03.538Z,4.88
2023-06-23T10:46:49.552Z,5.40
2023-06-23T10:49:35.081Z,4.03
2023-06-23T10:52:23.477Z,3.85
2023-06-23T10:55:38.015Z,5.15
2023-06-23T10:58:24.774Z,4.15
2023-06-23T11:01:10.295Z,4.43
2023-06-23T11:03:59.877Z,5.25
2023-06-23T11:06:45.259Z,4.45
2023-06-23T11:09:48.848Z,5.68
2023-06-23T11:12:40.357Z,4.93
2023-06-23T11:15:28.428Z,3.95
2023-06-23T11:18:16.145Z,3.95
2023-06-23T11:21:14.394Z,3.67
2023-06-23T11:24:10.160Z,3.65
2023-06-23T11:27:03.669Z,3.85
2023-06-23T11:30:22.036Z,4.90
2023-06-23T11:33:33.288Z,5.60
2023-06-23T11:36:20.788Z,4.38
2023-06-23T11:39:09.368Z,4.18
2023-06-23T11:41:57.541Z,4.85
2023-06-23T11:44:43.040Z,4.68
2023-06-23T11:47:33.448Z,7.10
2023-06-23T11:50:20.232Z,3.88
2023-06-23T11:53:05.915Z,4.78
2023-06-23T11:55:52.661Z,4.97
2023-06-23T11:58:38.297Z,3.88
2023-06-23T12:01:28.089Z,3.60
2023-06-23T12:04:13.657Z,3.45
2023-06-23T12:07:00.724Z,2.85
2023-06-23T12:09:47.062Z,3.20
2023-06-23T12:12:33.608Z,4.43
2023-06-23T12:15:22.985Z,4.00
2023-06-23T12:18:09.800Z,4.32
2023-06-23T12:21:03.630Z,5.70
2023-06-23T12:23:49.378Z,4.03
2023-06-23T12:26:34.782Z,5.03
2023-06-23T12:29:20.993Z,5.50
2023-06-23T12:32:06.635Z,5.63
2023-06-23T12:34:57.970Z,3.55
2023-06-23T12:37:48.925Z,4.50
2023-06-23T12:40:37.318Z,4.45
2023-06-23T12:43:23.925Z,4.05
2023-06-23T12:46:13.960Z,5.88
2023-06-23T12:48:59.996Z,5.47
2023-06-23T12:51:47.300Z,3.80
2023-06-23T12:54:32.863Z,3.50
2023-06-23T12:57:20.648Z,4.55
2023-06-23T13:00:07.493Z,3.88
2023-06-23T13:02:54.193Z,4.03
2023-06-23T13:05:41.320Z,4.25
2023-06-23T13:08:26.929Z,3.45
2023-06-23T13:11:12.183Z,3.00
2023-06-23T13:13:57.938Z,4.13
2023-06-23T13:16:44.576Z,3.63
2023-06-23T13:19:30.112Z,4.10
2023-06-23T13:22:15.727Z,5.75
2023-06-23T13:25:01.317Z,3.97
2023-06-23T13:27:46.805Z,4.15
2023-06-23T13:30:32.478Z,3.50
2023-06-23T13:33:19.262Z,4.18
2023-06-23T13:36:04.847Z,3.28
2023-06-23T13:38:50.180Z,4.07
2023-06-23T13:41:35.551Z,3.20
2023-06-23T13:44:22.454Z,3.45
2023-06-23T13:47:08.226Z,3.50
2023-06-23T13:49:53.505Z,4.03
2023-06-23T13:52:46.233Z,4.60
2023-06-23T13:55:31.968Z,3.50
2023-06-23T13:58:17.592Z,3.83
2023-06-23T14:01:03.203Z,3.15
2023-06-23T14:03:52.766Z,2.95
2023-06-23T14:06:38.151Z,2.97
2023-06-23T14:09:23.712Z,3.17
2023-06-23T14:12:09.224Z,3.42
2023-06-23T14:14:54.696Z,3.08
2023-06-23T14:17:40.385Z,3.65
2023-06-23T14:20:26.539Z,3.55
2023-06-23T14:23:12.601Z,2.75
2023-06-23T14:25:58.260Z,4.10
2023-06-23T14:28:44.622Z,2.85
2023-06-23T14:31:30.388Z,4.40
2023-06-23T14:34:17.146Z,3.25
2023-06-23T14:37:04.870Z,3.33
2023-06-23T14:39:50.663Z,3.22
2023-06-23T14:42:36.308Z,5.35
2023-06-23T14:45:21.941Z,4.30
2023-06-23T14:48:08.648Z,5.10
2023-06-23T14:50:54.369Z,2.97
2023-06-23T14:53:40.475Z,3.28
2023-06-23T14:56:25.938Z,2.88
2023-06-23T14:59:11.518Z,3.83
2023-06-23T15:01:58.304Z,3.00
2023-06-23T15:04:43.671Z,3.53
2023-06-23T15:07:29.232Z,2.78
2023-06-23T15:10:14.542Z,3.15
2023-06-23T15:13:00.159Z,3.53
2023-06-23T15:15:45.730Z,3.13
2023-06-23T15:18:31.237Z,2.63
2023-06-23T15:21:18.757Z,3.92
2023-06-23T15:24:04.539Z,3.22
2023-06-23T15:26:49.893Z,4.22
2023-06-23T15:29:35.711Z,2.80
2023-06-23T15:32:21.246Z,3.00
2023-06-23T15:35:07.601Z,3.97
2023-06-23T15:37:52.872Z,6.50
2023-06-23T15:40:39.207Z,5.28
2023-06-23T15:43:24.828Z,4.90
2023-06-23T15:46:10.211Z,3.05
2023-06-23T15:48:55.842Z,4.00
2023-06-23T15:51:44.446Z,4.22
2023-06-23T15:54:34.478Z,3.42
2023-06-23T15:57:23.570Z,4.00
2023-06-23T16:00:09.861Z,5.65
2023-06-23T16:02:55.502Z,2.60
2023-06-23T16:05:41.920Z,3.92
2023-06-23T16:08:28.140Z,2.97
2023-06-23T16:11:13.773Z,4.60
2023-06-23T16:13:59.242Z,3.78
2023-06-23T16:16:44.867Z,2.90
2023-06-23T16:19:30.490Z,3.33
2023-06-23T16:22:16.237Z,3.17
2023-06-23T16:25:02.884Z,2.83
2023-06-23T16:27:51.227Z,3.00
2023-06-23T16:30:37.334Z,3.17
2023-06-23T16:33:22.969Z,4.70
2023-06-23T16:36:11.051Z,3.88
2023-06-23T16:38:59.214Z,3.13
2023-06-23T16:41:49.130Z,3.53
2023-06-23T16:44:34.828Z,3.33
2023-06-23T16:47:20.390Z,3.25
2023-06-23T16:50:06.621Z,5.90
2023-06-23T16:52:52.299Z,4.05
2023-06-23T16:55:37.663Z,4.40
2023-06-23T16:58:23.299Z,3.08
2023-06-23T17:01:08.940Z,3.88
2023-06-23T17:03:54.166Z,3.50
2023-06-23T17:06:39.894Z,3.45
2023-06-23T17:09:25.249Z,3.10
2023-06-23T17:12:18.700Z,6.78
2023-06-23T17:15:06.148Z,3.20
2023-06-23T17:17:51.524Z,4.10
2023-06-23T17:20:37.995Z,3.00
2023-06-23T17:23:23.617Z,4.03
2023-06-23T17:26:08.729Z,3.45
2023-06-23T17:28:54.339Z,4.93
2023-06-23T17:31:41.025Z,4.97
2023-06-23T17:34:26.765Z,3.92
2023-06-23T17:37:11.883Z,3.58
2023-06-23T17:39:57.281Z,3.50
2023-06-23T17:42:42.895Z,3.05
2023-06-23T17:45:29.430Z,4.20
2023-06-23T17:48:14.931Z,3.00
2023-06-23T17:51:00.692Z,2.85
2023-06-23T17:53:46.891Z,4.85
2023-06-23T17:56:32.520Z,2.88
2023-06-23T17:59:18.060Z,5.32
2023-06-23T18:02:03.784Z,3.63
2023-06-23T18:04:49.651Z,3.08
2023-06-23T18:07:38.268Z,3.35
2023-06-23T18:10:23.672Z,3.75
2023-06-23T18:13:09.372Z,5.70
2023-06-23T18:15:55.186Z,3.75
2023-06-23T18:18:41.370Z,4.68
2023-06-23T18:21:27.310Z,4.30
2023-06-23T18:24:12.740Z,5.18
2023-06-23T18:26:58.396Z,4.80
2023-06-23T18:29:44.173Z,4.20
2023-06-23T18:32:41.234Z,3.28
2023-06-23T18:35:27.028Z,4.35
2023-06-23T18:38:12.456Z,3.45
2023-06-23T18:40:57.944Z,3.72
2023-06-23T18:43:43.436Z,3.72
2023-06-23T18:46:29.141Z,5.22
2023-06-23T18:49:14.538Z,3.15
2023-06-23T18:51:59.841Z,5.55
2023-06-23T18:54:45.330Z,4.88
2023-06-23T18:57:31.101Z,3.50
2023-06-23T19:00:19.108Z,4.63
2023-06-23T19:03:04.732Z,3.80
2023-06-23T19:05:50.046Z,3.50
2023-06-23T19:08:35.601Z,5.15
2023-06-23T19:11:21.622Z,2.97
2023-06-23T19:14:07.028Z,2.75
2023-06-23T19:16:52.628Z,3.03
2023-06-23T19:19:40.914Z,3.42
2023-06-23T19:22:26.473Z,3.03
2023-06-23T19:25:12.098Z,3.58
2023-06-23T19:27:57.457Z,4.03
2023-06-23T19:30:43.029Z,2.97
2023-06-23T19:33:31.210Z,3.78
2023-06-23T19:36:17.034Z,3.85
2023-06-23T19:39:02.484Z,3.50
2023-06-23T19:41:47.948Z,3.72
2023-06-23T19:44:36.214Z,4.80
2023-06-23T19:47:23.278Z,3.85
2023-06-23T19:50:09.602Z,3.65
2023-06-23T19:52:58.499Z,3.55
2023-06-23T19:55:46.534Z,3.38
2023-06-23T19:58:32.043Z,3.38
2023-06-23T20:01:19.413Z,4.43
2023-06-23T20:04:05.202Z,7.15
2023-06-23T20:06:50.787Z,4.55
2023-06-23T20:09:36.270Z,3.85
2023-06-23T20:12:22.072Z,5.18
2023-06-23T20:15:11.352Z,3.72
2023-06-23T20:17:59.441Z,4.63
2023-06-23T20:20:45.555Z,2.90
2023-06-23T20:23:32.253Z,3.53
2023-06-23T20:26:17.818Z,4.35
2023-06-23T20:29:03.429Z,3.88
2023-06-23T20:31:48.765Z,4.25
2023-06-23T20:34:34.544Z,3.78
2023-06-23T20:37:20.597Z,5.05
2023-06-23T20:40:06.833Z,3.90
2023-06-23T20:42:52.938Z,4.43
2023-06-23T20:45:39.596Z,3.88
2023-06-23T20:48:25.211Z,4.75
2023-06-23T20:51:10.727Z,7.65
2023-06-23T20:53:56.384Z,5.82
2023-06-23T20:56:41.972Z,6.63
2023-06-23T20:59:28.206Z,5.88
2023-06-23T21:02:13.747Z,5.22
2023-06-23T21:04:59.257Z,4.32
2023-06-23T21:07:46.511Z,4.75
2023-06-23T21:10:32.152Z,4.90
2023-06-23T21:13:17.725Z,4.25
2023-06-23T21:16:03.920Z,4.47
2023-06-23T21:18:49.425Z,6.78
2023-06-23T21:21:35.182Z,5.35
2023-06-23T21:24:20.704Z,4.25
2023-06-23T21:27:06.678Z,4.45
2023-06-23T21:29:52.681Z,3.80
2023-06-23T21:32:38.263Z,5.30
2023-06-23T21:35:23.618Z,5.50
2023-06-23T21:38:08.920Z,4.97
2023-06-23T21:40:54.269Z,7.28
2023-06-23T21:43:42.345Z,3.95
2023-06-23T21:46:28.274Z,4.15
2023-06-23T21:49:13.654Z,4.25
2023-06-23T21:52:00.209Z,4.80
2023-06-23T21:54:46.142Z,6.30
2023-06-23T21:57:31.500Z,6.10
2023-06-23T22:00:17.639Z,6.45
2023-06-23T22:03:05.059Z,4.82
2023-06-23T22:05:50.601Z,5.10
2023-06-23T22:08:36.139Z,4.10
2023-06-23T22:11:24.291Z,5.60
2023-06-23T22:14:09.529Z,4.60
2023-06-23T22:16:55.353Z,4.78
2023-06-23T22:19:40.735Z,7.60
2023-06-23T22:22:26.328Z,4.38
2023-06-23T22:25:13.500Z,4.03
2023-06-23T22:27:59.893Z,4.80
2023-06-23T22:30:45.312Z,5.90
2023-06-23T22:33:30.795Z,4.75
2023-06-23T22:36:16.176Z,4.72
2023-06-23T22:39:01.787Z,6.90
2023-06-23T22:41:47.513Z,6.97
2023-06-23T22:44:33.042Z,5.25
2023-06-23T22:47:21.948Z,7.03
2023-06-23T22:50:08.009Z,5.50
2023-06-23T22:52:53.715Z,4.65
2023-06-23T22:55:39.276Z,5.50
2023-06-23T22:58:24.830Z,5.57
2023-06-23T23:01:10.225Z,5.05
2023-06-23T23:03:55.921Z,4.82
2023-06-23T23:06:41.530Z,6.85
2023-06-23T23:09:27.397Z,4.63
2023-06-23T23:12:12.627Z,4.85
2023-06-23T23:14:58.224Z,5.57
2023-06-23T23:17:44.119Z,6.75
2023-06-23T23:20:29.801Z,5.25
2023-06-23T23:23:15.233Z,6.05
2023-06-23T23:26:04.464Z,6.57
2023-06-23T23:28:52.777Z,4.93
2023-06-23T23:31:41.471Z,6.38
2023-06-23T23:34:33.610Z,6.22
2023-06-23T23:37:19.340Z,7.00
2023-06-23T23:40:06.241Z,4.95
2023-06-23T23:42:51.527Z,5.03
2023-06-23T23:45:37.086Z,5.45
2023-06-23T23:48:22.533Z,7.63
2023-06-23T23:51:08.193Z,4.60
2023-06-23T23:53:53.702Z,6.63
2023-06-23T23:56:39.488Z,5.05
2023-06-23T23:59:25.518Z,7.47
